createdAt,value
2024-04-19T00:01:58.616Z,9.07
2024-04-19T00:04:31.740Z,11.18
2024-04-19T00:06:59.145Z,9.20
2024-04-19T00:09:46.914Z,11.00
2024-04-19T00:12:14.399Z,12.88
2024-04-19T00:14:44.610Z,8.10
2024-04-19T00:17:13.948Z,11.32
2024-04-19T00:19:46.871Z,10.63
2024-04-19T00:22:14.853Z,10.38
2024-04-19T00:24:44.854Z,12.50
2024-04-19T00:27:12.360Z,10.73
2024-04-19T00:29:49.063Z,14.10
2024-04-19T00:32:17.053Z,12.20
2024-04-19T00:34:49.645Z,11.48
2024-04-19T00:39:47.160Z,10.98
2024-04-19T00:42:14.569Z,10.85
2024-04-19T00:44:45.241Z,12.27
2024-04-19T00:47:12.775Z,10.73
2024-04-19T00:49:45.103Z,14.35
2024-04-19T00:52:15.372Z,18.25
2024-04-19T00:54:45.578Z,13.20
2024-04-19T00:57:13.394Z,12.68
2024-04-19T00:59:43.655Z,14.95
2024-04-19T01:02:11.163Z,14.80
2024-04-19T01:04:41.474Z,13.52
2024-04-19T01:07:08.734Z,14.55
2024-04-19T01:09:41.989Z,13.68
2024-04-19T01:12:10.358Z,13.48
2024-04-19T01:14:40.853Z,13.82
2024-04-19T01:17:10.813Z,15.30
2024-04-19T01:19:38.232Z,16.98
2024-04-19T01:22:08.718Z,15.73
2024-04-19T01:24:40.799Z,15.65
2024-04-19T01:27:13.344Z,19.40
2024-04-19T01:32:11.022Z,13.52
2024-04-19T01:34:38.330Z,11.80
2024-04-19T01:37:08.598Z,14.07
2024-04-19T01:39:36.023Z,12.75
2024-04-19T01:42:06.054Z,13.68
2024-04-19T01:44:35.874Z,10.57
2024-04-19T01:47:06.088Z,15.13
2024-04-19T01:49:33.530Z,13.80
2024-04-19T01:52:03.648Z,19.13
2024-04-19T01:54:30.876Z,13.95
2024-04-19T01:57:03.121Z,16.83
2024-04-19T01:59:30.386Z,12.60
2024-04-19T02:02:03.039Z,11.38
2024-04-19T02:07:00.254Z,10.52
2024-04-19T02:09:34.960Z,9.13
2024-04-19T02:12:05.062Z,12.25
2024-04-19T02:14:33.379Z,9.45
2024-04-19T02:17:06.163Z,8.43
2024-04-19T02:19:37.554Z,13.57
2024-04-19T02:22:07.798Z,11.65
2024-04-19T02:24:35.872Z,12.65
2024-04-19T02:27:18.843Z,12.35
2024-04-19T02:30:04.796Z,12.23
2024-04-19T02:32:37.619Z,12.40
2024-04-19T02:37:37.499Z,12.05
2024-04-19T02:40:11.366Z,11.68
2024-04-19T02:42:41.296Z,16.13
2024-04-19T02:45:11.716Z,15.13
2024-04-19T02:47:44.222Z,10.90
2024-04-19T02:50:11.472Z,14.93
2024-04-19T02:52:41.341Z,15.75
2024-04-19T02:55:11.501Z,14.88
2024-04-19T02:57:41.492Z,10.38
2024-04-19T03:00:12.075Z,11.57
2024-04-19T03:02:50.780Z,12.38
2024-04-19T03:07:51.224Z,8.52
2024-04-19T03:10:21.733Z,12.50
2024-04-19T03:12:51.740Z,12.32
2024-04-19T03:15:21.823Z,15.50
2024-04-19T03:17:54.391Z,10.07
2024-04-19T03:22:53.865Z,13.48
2024-04-19T03:25:23.716Z,9.10
2024-04-19T03:27:53.996Z,7.45
2024-04-19T03:30:30.836Z,7.30
2024-04-19T03:33:03.636Z,8.02
2024-04-19T03:35:33.703Z,10.23
2024-04-19T03:38:03.803Z,9.07
2024-04-19T03:40:33.917Z,10.90
2024-04-19T03:43:03.821Z,8.20
2024-04-19T03:45:46.014Z,7.65
2024-04-19T03:48:19.132Z,7.68
2024-04-19T03:50:49.344Z,12.27
2024-04-19T03:53:19.184Z,7.25
2024-04-19T03:55:49.862Z,9.73
2024-04-19T03:58:19.811Z,8.93
2024-04-19T04:00:51.232Z,8.98
2024-04-19T04:03:23.942Z,7.00
2024-04-19T04:05:55.063Z,12.75
2024-04-19T04:08:24.985Z,9.52
2024-04-19T04:10:54.941Z,9.32
2024-04-19T04:13:24.908Z,10.18
2024-04-19T04:15:54.964Z,10.30
2024-04-19T04:18:28.238Z,4.82
2024-04-19T04:20:58.243Z,7.75
2024-04-19T04:23:28.063Z,8.27
2024-04-19T04:25:58.055Z,5.80
2024-04-19T04:28:27.991Z,8.60
2024-04-19T04:30:58.359Z,6.47
2024-04-19T04:33:30.887Z,9.23
2024-04-19T04:36:01.380Z,7.78
2024-04-19T04:38:31.439Z,10.05
2024-04-19T04:41:01.316Z,8.60
2024-04-19T04:43:31.215Z,13.55
2024-04-19T04:46:01.131Z,9.00
2024-04-19T04:48:34.032Z,7.78
2024-04-19T04:51:05.056Z,9.68
2024-04-19T04:53:35.933Z,7.50
2024-04-19T04:56:06.043Z,5.65
2024-04-19T04:58:36.129Z,7.80
2024-04-19T05:01:06.223Z,7.57
2024-04-19T05:03:39.257Z,8.20
2024-04-19T05:06:09.327Z,5.10
2024-04-19T05:08:39.485Z,5.60
2024-04-19T05:11:09.609Z,6.32
2024-04-19T05:13:39.535Z,7.57
2024-04-19T05:16:09.750Z,6.82
2024-04-19T05:18:42.541Z,7.50
2024-04-19T05:21:12.552Z,7.28
2024-04-19T05:23:42.900Z,6.88
2024-04-19T05:26:12.963Z,7.72
2024-04-19T05:28:42.871Z,7.40
2024-04-19T05:31:12.903Z,6.88
2024-04-19T05:33:45.841Z,6.78
2024-04-19T05:36:15.896Z,7.78
2024-04-19T05:38:46.238Z,7.05
2024-04-19T05:41:16.219Z,8.23
2024-04-19T05:43:49.705Z,5.75
2024-04-19T05:46:19.541Z,6.18
2024-04-19T05:48:52.140Z,7.22
2024-04-19T05:53:51.938Z,7.30
2024-04-19T05:56:21.858Z,7.47
2024-04-19T05:58:51.757Z,5.47
2024-04-19T06:01:21.745Z,13.40
2024-04-19T06:03:54.783Z,5.95
2024-04-19T06:06:24.688Z,7.40
2024-04-19T06:08:55.175Z,9.60
2024-04-19T06:11:26.387Z,5.88
2024-04-19T06:13:56.435Z,7.07
2024-04-19T06:16:26.323Z,6.22
2024-04-19T06:18:59.094Z,6.10
2024-04-19T06:21:29.191Z,6.10
2024-04-19T06:23:59.101Z,6.38
2024-04-19T06:26:29.060Z,5.72
2024-04-19T06:28:59.019Z,7.35
2024-04-19T06:31:28.961Z,7.13
2024-04-19T06:34:01.627Z,6.43
2024-04-19T06:39:04.911Z,6.53
2024-04-19T06:41:36.286Z,5.82
2024-04-19T06:44:07.529Z,7.57
2024-04-19T06:46:37.376Z,7.35
2024-04-19T06:49:10.173Z,6.30
2024-04-19T06:51:43.960Z,5.65
2024-04-19T06:54:14.482Z,5.18
2024-04-19T06:56:44.459Z,5.10
2024-04-19T06:59:14.527Z,5.80
2024-04-19T07:01:44.810Z,6.40
2024-04-19T07:04:17.677Z,5.82
2024-04-19T07:06:48.465Z,11.85
2024-04-19T07:09:18.722Z,8.00
2024-04-19T07:11:49.298Z,6.10
2024-04-19T07:14:19.262Z,6.40
2024-04-19T07:16:49.174Z,5.80
2024-04-19T07:19:21.658Z,6.30
2024-04-19T07:21:51.570Z,5.45
2024-04-19T07:24:22.647Z,6.03
2024-04-19T07:26:53.479Z,5.63
2024-04-19T07:29:23.430Z,6.10
2024-04-19T07:31:53.689Z,6.55
2024-04-19T07:34:28.339Z,6.47
2024-04-19T07:36:58.227Z,6.60
2024-04-19T07:39:28.099Z,6.53
2024-04-19T07:41:58.125Z,6.70
2024-04-19T07:44:28.097Z,9.88
2024-04-19T07:47:00.763Z,8.48
2024-04-19T07:49:34.103Z,8.85
2024-04-19T07:54:35.318Z,11.68
2024-04-19T07:57:05.169Z,8.10
2024-04-19T07:59:35.045Z,9.90
2024-04-19T08:02:05.294Z,11.07
2024-04-19T08:04:38.220Z,7.82
2024-04-19T08:07:09.654Z,8.32
2024-04-19T08:09:42.500Z,10.55
2024-04-19T08:12:12.960Z,11.73
2024-04-19T08:14:43.045Z,10.27
2024-04-19T08:17:13.035Z,8.63
2024-04-19T08:19:45.878Z,8.82
2024-04-19T08:22:15.734Z,10.77
2024-04-19T08:24:45.830Z,10.40
2024-04-19T08:27:15.713Z,13.05
2024-04-19T08:29:45.504Z,14.77
2024-04-19T08:32:15.388Z,10.50
2024-04-19T08:34:51.962Z,10.55
2024-04-19T08:37:22.134Z,14.13
2024-04-19T08:39:54.575Z,11.55
2024-04-19T08:42:24.688Z,11.90
2024-04-19T08:44:55.150Z,11.10
2024-04-19T08:47:25.351Z,11.68
2024-04-19T08:49:59.402Z,11.15
2024-04-19T08:52:50.505Z,9.65
2024-04-19T08:55:21.948Z,13.48
2024-04-19T08:57:52.673Z,12.25
2024-04-19T09:00:23.535Z,11.38
2024-04-19T09:02:53.562Z,11.90
2024-04-19T09:05:26.380Z,12.18
2024-04-19T09:07:56.502Z,10.45
2024-04-19T09:10:26.713Z,13.20
2024-04-19T09:12:56.702Z,11.60
2024-04-19T09:15:29.584Z,14.27
2024-04-19T09:18:02.747Z,14.57
2024-04-19T09:20:35.302Z,13.32
2024-04-19T09:23:05.141Z,15.45
2024-04-19T09:25:35.414Z,14.48
2024-04-19T09:28:05.389Z,15.95
2024-04-19T09:30:35.610Z,13.88
2024-04-19T09:33:06.001Z,14.52
2024-04-19T09:35:39.550Z,14.73
2024-04-19T09:38:10.068Z,13.50
2024-04-19T09:40:40.126Z,12.40
2024-04-19T09:43:10.862Z,15.13
2024-04-19T09:45:45.557Z,15.30
2024-04-19T09:48:18.844Z,18.13
2024-04-19T09:50:53.148Z,13.73
2024-04-19T09:53:30.904Z,21.63
2024-04-19T09:56:09.503Z,15.48
2024-04-19T09:58:39.817Z,16.85
2024-04-19T10:01:09.821Z,14.48
2024-04-19T10:03:40.576Z,19.45
2024-04-19T10:06:17.660Z,25.50
2024-04-19T10:08:48.906Z,18.40
2024-04-19T10:11:20.369Z,14.10
2024-04-19T10:13:51.179Z,17.95
2024-04-19T10:16:21.014Z,19.77
2024-04-19T10:18:51.601Z,23.15
2024-04-19T10:21:29.035Z,16.33
2024-04-19T10:23:59.183Z,18.30
2024-04-19T10:26:30.511Z,17.75
2024-04-19T10:28:57.964Z,16.92
2024-04-19T10:31:27.926Z,10.40
2024-04-19T10:34:00.245Z,5.80
2024-04-19T10:36:36.477Z,5.00
2024-04-19T10:39:06.715Z,5.63
2024-04-19T10:41:36.815Z,7.15
2024-04-19T10:44:06.760Z,6.60
2024-04-19T10:46:37.189Z,4.20
2024-04-19T10:49:08.192Z,3.42
2024-04-19T10:51:40.795Z,4.78
2024-04-19T10:54:12.242Z,5.00
2024-04-19T10:56:44.028Z,4.05
2024-04-19T10:59:13.875Z,8.23
2024-04-19T11:01:45.907Z,3.97
2024-04-19T11:04:16.416Z,7.82
2024-04-19T11:06:49.136Z,7.35
2024-04-19T11:11:50.282Z,7.30
2024-04-19T11:14:20.359Z,6.30
2024-04-19T11:16:50.355Z,6.80
2024-04-19T11:19:20.285Z,12.60
2024-04-19T11:21:55.005Z,9.93
2024-04-19T11:24:25.038Z,10.60
2024-04-19T11:26:55.071Z,8.07
2024-04-19T11:29:25.439Z,8.63
2024-04-19T11:31:55.694Z,12.00
2024-04-19T11:34:31.916Z,11.27
2024-04-19T11:37:05.746Z,7.18
2024-04-19T11:39:36.092Z,10.50
2024-04-19T11:42:06.711Z,10.25
2024-04-19T11:44:36.987Z,6.38
2024-04-19T11:47:08.212Z,5.70
2024-04-19T11:49:38.784Z,7.45
2024-04-19T11:52:12.723Z,5.22
2024-04-19T11:54:45.032Z,6.22
2024-04-19T11:57:15.114Z,4.38
2024-04-19T11:59:45.022Z,6.70
2024-04-19T12:02:14.936Z,5.45
2024-04-19T12:04:45.568Z,8.48
2024-04-19T12:07:18.989Z,5.38
2024-04-19T12:09:49.066Z,6.50
2024-04-19T12:13:08.727Z,7.38
2024-04-19T12:15:58.276Z,9.57
2024-04-19T12:18:03.265Z,7.30
2024-04-19T12:20:46.620Z,8.32
2024-04-19T12:23:24.513Z,7.63
2024-04-19T12:25:55.655Z,6.00
2024-04-19T12:28:26.784Z,9.65
2024-04-19T12:30:55.850Z,9.43
2024-04-19T12:33:25.963Z,8.95
2024-04-19T12:35:56.016Z,11.25
2024-04-19T12:38:29.100Z,14.23
2024-04-19T12:40:59.643Z,9.52
2024-04-19T12:43:29.754Z,10.27
2024-04-19T12:46:00.048Z,7.57
2024-04-19T12:48:30.153Z,6.85
2024-04-19T12:51:00.679Z,7.10
2024-04-19T12:53:33.236Z,9.57
2024-04-19T12:56:03.682Z,6.10
2024-04-19T12:58:33.612Z,10.10
2024-04-19T13:01:05.503Z,8.77
2024-04-19T13:03:36.017Z,8.90
2024-04-19T13:06:06.471Z,8.40
2024-04-19T13:08:39.550Z,8.85
2024-04-19T13:11:09.495Z,8.38
2024-04-19T13:13:51.356Z,11.02
2024-04-19T13:16:21.366Z,11.10
2024-04-19T13:18:51.450Z,12.32
2024-04-19T13:21:23.504Z,11.30
2024-04-19T13:23:56.056Z,11.98
2024-04-19T13:28:57.765Z,8.15
2024-04-19T13:31:27.779Z,16.02
2024-04-19T13:33:57.763Z,10.93
2024-04-19T13:36:27.791Z,16.17
2024-04-19T13:39:00.490Z,14.52
2024-04-19T13:41:30.455Z,8.48
2024-04-19T13:44:01.775Z,10.30
2024-04-19T13:46:31.887Z,9.05
2024-04-19T13:49:01.766Z,9.50
2024-04-19T13:51:31.782Z,11.90
2024-04-19T13:54:04.531Z,13.60
2024-04-19T13:56:34.653Z,8.30
2024-04-19T13:59:04.876Z,7.35
2024-04-19T14:01:35.031Z,7.07
2024-04-19T14:04:04.978Z,8.02
2024-04-19T14:06:35.073Z,4.22
2024-04-19T14:09:08.956Z,8.70
2024-04-19T14:11:39.263Z,6.32
2024-04-19T14:14:09.437Z,9.10
2024-04-19T14:16:39.424Z,6.00
2024-04-19T14:19:09.479Z,8.13
2024-04-19T14:21:39.661Z,5.32
2024-04-19T14:24:12.788Z,6.43
2024-04-19T14:26:43.084Z,8.30
2024-04-19T14:29:13.018Z,9.32
2024-04-19T14:31:42.948Z,4.57
2024-04-19T14:34:12.799Z,8.20
2024-04-19T14:36:43.132Z,6.25
2024-04-19T14:39:16.003Z,9.25
2024-04-19T14:41:47.791Z,7.65
2024-04-19T14:44:17.975Z,10.73
2024-04-19T14:46:47.947Z,8.32
2024-04-19T14:49:18.070Z,5.20
2024-04-19T14:51:50.598Z,7.80
2024-04-19T14:54:23.165Z,7.50
2024-04-19T14:56:55.548Z,7.88
2024-04-19T14:59:26.158Z,7.00
2024-04-19T15:01:56.758Z,12.55
2024-04-19T15:04:27.065Z,5.65
2024-04-19T15:06:57.306Z,8.73
2024-04-19T15:09:29.951Z,10.02
2024-04-19T15:14:29.454Z,9.23
2024-04-19T15:17:00.510Z,7.43
2024-04-19T15:19:32.797Z,12.32
2024-04-19T15:22:04.422Z,6.97
2024-04-19T15:24:37.039Z,11.68
2024-04-19T15:29:36.833Z,11.15
2024-04-19T15:32:07.125Z,6.88
2024-04-19T15:34:46.903Z,7.35
2024-04-19T15:37:18.217Z,8.68
2024-04-19T15:39:51.654Z,9.07
2024-04-19T15:42:21.859Z,7.47
2024-04-19T15:44:52.057Z,9.15
2024-04-19T15:47:22.175Z,9.02
2024-04-19T15:49:52.290Z,12.25
2024-04-19T15:52:22.853Z,12.85
2024-04-19T15:54:55.615Z,8.18
2024-04-19T15:57:23.207Z,7.47
2024-04-19T15:59:54.618Z,10.50
2024-04-19T16:02:24.574Z,6.13
2024-04-19T16:04:54.807Z,10.98
2024-04-19T16:07:24.984Z,8.80
2024-04-19T16:09:57.975Z,8.82
2024-04-19T16:12:31.161Z,8.13
2024-04-19T16:15:01.975Z,11.35
2024-04-19T16:17:32.570Z,12.50
2024-04-19T16:20:04.930Z,10.40
2024-04-19T16:22:36.279Z,13.02
2024-04-19T16:25:09.120Z,12.63
2024-04-19T16:27:39.493Z,11.90
2024-04-19T16:30:11.081Z,12.07
2024-04-19T16:32:41.350Z,12.40
2024-04-19T16:35:11.491Z,18.30
2024-04-19T16:37:43.785Z,11.93
2024-04-19T16:40:16.473Z,14.95
2024-04-19T16:42:48.798Z,15.18
2024-04-19T16:45:20.292Z,19.83
2024-04-19T16:47:53.405Z,15.45
2024-04-19T16:50:23.734Z,11.50
2024-04-19T16:52:53.568Z,15.95
2024-04-19T16:55:26.302Z,11.85
2024-04-19T16:57:56.539Z,16.75
2024-04-19T17:00:26.772Z,20.17
2024-04-19T17:02:56.933Z,17.58
2024-04-19T17:05:27.473Z,18.58
2024-04-19T17:07:57.349Z,16.85
2024-04-19T17:10:30.064Z,12.75
2024-04-19T17:13:01.050Z,15.35
2024-04-19T17:15:31.740Z,16.40
2024-04-19T17:18:04.713Z,15.43
2024-04-19T17:20:35.801Z,18.48
2024-04-19T17:23:10.503Z,18.40
2024-04-19T17:25:43.343Z,11.30
2024-04-19T17:28:13.658Z,17.05
2024-04-19T17:30:46.149Z,15.85
2024-04-19T17:33:18.995Z,23.08
2024-04-19T17:35:49.294Z,15.75
2024-04-19T17:38:20.698Z,19.38
2024-04-19T17:40:53.767Z,13.57
2024-04-19T17:43:23.650Z,13.18
2024-04-19T17:45:53.662Z,18.95
2024-04-19T17:48:26.356Z,21.52
2024-04-19T17:50:56.662Z,17.98
2024-04-19T17:53:26.705Z,17.85
2024-04-19T17:55:59.585Z,13.40
2024-04-19T17:58:29.635Z,14.93
2024-04-19T18:00:59.899Z,8.40
2024-04-19T18:03:30.609Z,11.32
2024-04-19T18:06:00.684Z,11.43
2024-04-19T18:08:30.619Z,9.55
2024-04-19T18:11:04.211Z,10.60
2024-04-19T18:13:34.312Z,15.93
2024-04-19T18:16:09.655Z,7.90
2024-04-19T18:18:39.948Z,13.85
2024-04-19T18:21:10.548Z,13.90
2024-04-19T18:23:40.590Z,19.25
2024-04-19T18:26:13.135Z,10.77
2024-04-19T18:28:42.935Z,18.45
2024-04-19T18:31:13.170Z,7.63
2024-04-19T18:33:45.621Z,13.43
2024-04-19T18:36:18.980Z,14.15
2024-04-19T18:38:49.001Z,13.50
2024-04-19T18:41:24.774Z,16.83
2024-04-19T18:43:55.037Z,16.80
2024-04-19T18:46:25.012Z,16.42
2024-04-19T18:48:55.251Z,17.60
2024-04-19T18:51:28.506Z,11.43
2024-04-19T18:53:58.698Z,13.38
2024-04-19T18:56:31.555Z,7.18
2024-04-19T18:59:01.702Z,11.18
2024-04-19T19:01:32.622Z,11.77
2024-04-19T19:04:03.106Z,12.40
2024-04-19T19:06:34.146Z,15.70
2024-04-19T19:09:04.217Z,12.55
2024-04-19T19:11:37.597Z,15.68
2024-04-19T19:14:07.649Z,14.52
2024-04-19T19:16:39.006Z,16.33
2024-04-19T19:19:10.389Z,21.27
2024-04-19T19:21:40.293Z,14.05
2024-04-19T19:24:11.240Z,24.38
2024-04-19T19:26:43.712Z,26.02
2024-04-19T19:29:21.024Z,12.70
2024-04-19T19:31:51.104Z,25.27
2024-04-19T19:34:20.914Z,27.80
2024-04-19T19:36:51.223Z,23.60
2024-04-19T19:39:23.084Z,34.58
2024-04-19T19:41:58.838Z,47.30
2024-04-19T19:44:34.672Z,26.73
2024-04-19T19:47:04.641Z,35.15
2024-04-19T19:49:35.076Z,23.85
2024-04-19T19:52:05.463Z,27.95
2024-04-19T19:54:35.485Z,29.27
2024-04-19T19:57:08.789Z,36.40
2024-04-19T19:59:54.367Z,25.48
2024-04-19T20:02:51.381Z,34.53
2024-04-19T20:05:36.931Z,22.40
2024-04-19T20:08:07.184Z,21.20
2024-04-19T20:10:37.291Z,26.58
2024-04-19T20:13:10.202Z,30.45
2024-04-19T20:15:40.175Z,32.85
2024-04-19T20:18:10.541Z,31.02
2024-04-19T20:20:40.552Z,33.67
2024-04-19T20:23:10.724Z,31.42
2024-04-19T20:25:40.678Z,35.85
2024-04-19T20:28:13.814Z,43.78
2024-04-19T20:30:44.303Z,35.92
2024-04-19T20:33:14.590Z,24.10
2024-04-19T20:35:44.582Z,32.63
2024-04-19T20:38:14.769Z,27.98
2024-04-19T20:40:44.889Z,28.90
2024-04-19T20:43:20.588Z,40.78
2024-04-19T20:45:51.286Z,35.50
2024-04-19T20:48:21.242Z,33.30
2024-04-19T20:50:51.633Z,42.13
2024-04-19T20:53:21.738Z,43.65
2024-04-19T20:55:51.769Z,42.47
2024-04-19T20:58:24.210Z,33.90
2024-04-19T21:00:54.409Z,27.52
2024-04-19T21:03:24.458Z,31.55
2024-04-19T21:05:54.342Z,35.65
2024-04-19T21:08:24.208Z,31.95
2024-04-19T21:10:54.089Z,36.33
2024-04-19T21:13:26.604Z,20.92
2024-04-19T21:16:12.801Z,30.48
2024-04-19T21:18:45.951Z,23.17
2024-04-19T21:21:16.035Z,22.88
2024-04-19T21:23:47.935Z,24.05
2024-04-19T21:26:15.282Z,28.08
2024-04-19T21:28:47.795Z,27.75
2024-04-19T21:31:17.960Z,20.77
2024-04-19T21:33:47.873Z,18.58
2024-04-19T21:36:18.013Z,30.23
2024-04-19T21:38:48.460Z,28.17
2024-04-19T21:41:18.357Z,23.60
2024-04-19T21:43:51.052Z,25.77
2024-04-19T21:48:50.853Z,21.27
2024-04-19T21:51:21.268Z,31.73
2024-04-19T21:53:51.082Z,24.05
2024-04-19T21:56:18.849Z,23.33
2024-04-19T21:58:53.615Z,23.63
2024-04-19T22:01:23.652Z,18.70
2024-04-19T22:03:53.541Z,27.05
2024-04-19T22:06:23.990Z,25.58
2024-04-19T22:08:51.550Z,24.85
2024-04-19T22:11:22.959Z,32.53
2024-04-19T22:13:55.605Z,26.30
2024-04-19T22:16:26.475Z,26.10
2024-04-19T22:18:56.384Z,22.08
2024-04-19T22:21:26.388Z,29.10
2024-04-19T22:23:56.318Z,21.83
2024-04-19T22:26:26.167Z,27.17
2024-04-19T22:28:58.931Z,26.67
2024-04-19T22:31:29.311Z,34.60
2024-04-19T22:33:59.380Z,29.48
2024-04-19T22:36:29.562Z,38.33
2024-04-19T22:38:59.585Z,30.88
2024-04-19T22:41:29.636Z,24.35
2024-04-19T22:44:02.122Z,28.80
2024-04-19T22:46:32.837Z,29.17
2024-04-19T22:49:03.657Z,26.58
2024-04-19T22:51:33.877Z,22.35
2024-04-19T22:54:03.947Z,22.15
2024-04-19T22:56:34.502Z,29.15
2024-04-19T22:59:07.183Z,25.02
2024-04-19T23:04:08.319Z,22.20
2024-04-19T23:06:38.435Z,23.17
2024-04-19T23:09:09.607Z,24.48
2024-04-19T23:11:39.728Z,24.25
2024-04-19T23:14:12.180Z,24.23
2024-04-19T23:16:43.545Z,26.27
2024-04-19T23:19:11.249Z,21.13
2024-04-19T23:21:41.259Z,19.63
2024-04-19T23:24:12.507Z,15.90
2024-04-19T23:26:43.049Z,21.63
2024-04-19T23:29:15.637Z,20.20
2024-04-19T23:31:46.061Z,13.43
2024-04-19T23:34:16.493Z,15.90
2024-04-19T23:36:46.733Z,20.60
2024-04-19T23:39:17.651Z,13.85
2024-04-19T23:41:48.435Z,22.85
2024-04-19T23:44:21.854Z,15.15
2024-04-19T23:46:52.734Z,22.13
2024-04-19T23:49:23.209Z,19.88
2024-04-19T23:51:55.370Z,16.73
2024-04-19T23:54:26.216Z,16.63
2024-04-19T23:56:56.805Z,18.80
2024-04-19T23:59:29.946Z,13.95
